createdAt,value
2018-03-16T00:01:02.040Z,3.53
2018-03-16T00:03:29.548Z,3.52
2018-03-16T00:05:57.077Z,3.37
2018-03-16T00:08:24.587Z,3.44
2018-03-16T00:10:52.557Z,3.46
2018-03-16T00:13:20.046Z,3.46
2018-03-16T00:15:47.548Z,3.56
2018-03-16T00:18:15.445Z,3.50
2018-03-16T00:20:42.951Z,3.56
2018-03-16T00:23:10.482Z,3.59
2018-03-16T00:25:37.993Z,3.57
2018-03-16T00:28:05.524Z,3.58
2018-03-16T00:30:33.018Z,3.50
2018-03-16T00:33:00.566Z,3.46
2018-03-16T00:35:28.076Z,3.52
2018-03-16T00:37:55.928Z,3.44
2018-03-16T00:40:23.443Z,3.33
2018-03-16T00:42:51.249Z,3.40
2018-03-16T00:45:18.755Z,3.37
2018-03-16T00:47:46.572Z,3.37
2018-03-16T00:50:14.083Z,3.33
2018-03-16T00:52:41.895Z,3.28
2018-03-16T00:55:09.424Z,3.18
2018-03-16T00:57:36.963Z,3.28
2018-03-16T01:00:04.520Z,3.23
2018-03-16T01:02:32.058Z,3.22
2018-03-16T01:04:59.557Z,3.25
2018-03-16T01:07:27.104Z,3.24
2018-03-16T01:09:54.928Z,3.24
2018-03-16T01:12:22.521Z,3.24
2018-03-16T01:14:50.040Z,3.32
2018-03-16T01:17:17.631Z,3.24
2018-03-16T01:19:45.172Z,3.30
2018-03-16T01:22:12.751Z,3.30
2018-03-16T01:24:40.316Z,3.37
2018-03-16T01:27:07.855Z,3.36
2018-03-16T01:29:35.411Z,3.33
2018-03-16T01:32:03.179Z,3.18
2018-03-16T01:34:30.687Z,3.22
2018-03-16T01:36:58.509Z,3.27
2018-03-16T01:39:26.027Z,3.26
2018-03-16T01:41:54.322Z,3.32
2018-03-16T01:44:21.810Z,3.37
2018-03-16T01:46:49.403Z,3.37
2018-03-16T01:49:16.999Z,3.37
2018-03-16T01:51:44.761Z,3.35
2018-03-16T01:54:12.295Z,3.30
2018-03-16T01:56:39.807Z,3.25
2018-03-16T01:59:07.323Z,3.18
2018-03-16T02:01:34.823Z,3.20
2018-03-16T02:04:02.356Z,3.18
2018-03-16T02:06:29.889Z,3.01
2018-03-16T02:08:57.412Z,3.04
2018-03-16T02:11:24.927Z,3.08
2018-03-16T02:13:52.836Z,3.12
2018-03-16T02:16:20.383Z,3.18
2018-03-16T02:18:48.200Z,3.23
2018-03-16T02:21:15.702Z,3.20
2018-03-16T02:23:43.244Z,3.25
2018-03-16T02:26:10.811Z,3.19
2018-03-16T02:28:38.330Z,3.20
2018-03-16T02:31:06.033Z,3.16
2018-03-16T02:33:33.585Z,3.16
2018-03-16T02:36:01.070Z,3.06
2018-03-16T02:38:28.653Z,3.03
2018-03-16T02:40:56.424Z,2.99
2018-03-16T02:43:23.926Z,2.99
2018-03-16T02:45:51.458Z,2.93
2018-03-16T02:48:19.002Z,2.85
2018-03-16T02:50:46.519Z,2.84
2018-03-16T02:53:14.167Z,2.78
2018-03-16T02:55:41.681Z,2.90
2018-03-16T02:58:09.565Z,2.86
2018-03-16T03:00:37.104Z,2.75
2018-03-16T03:03:04.624Z,2.79
2018-03-16T03:05:32.137Z,2.85
2018-03-16T03:07:59.658Z,2.89
2018-03-16T03:10:27.157Z,2.91
2018-03-16T03:12:54.674Z,2.81
2018-03-16T03:15:22.210Z,2.87
2018-03-16T03:17:49.731Z,2.77
2018-03-16T03:20:17.224Z,2.76
2018-03-16T03:22:44.764Z,2.83
2018-03-16T03:25:12.276Z,2.79
2018-03-16T03:27:39.972Z,2.83
2018-03-16T03:30:07.532Z,2.87
2018-03-16T03:32:35.072Z,2.89
2018-03-16T03:35:02.586Z,2.82
2018-03-16T03:37:30.166Z,2.79
2018-03-16T03:39:58.004Z,2.84
2018-03-16T03:42:25.505Z,2.83
2018-03-16T03:44:53.277Z,2.81
2018-03-16T03:47:20.788Z,2.88
2018-03-16T03:49:48.527Z,2.85
2018-03-16T03:52:16.055Z,2.87
2018-03-16T03:54:43.583Z,2.74
2018-03-16T03:57:11.111Z,2.66
2018-03-16T03:59:38.647Z,2.66
2018-03-16T04:02:06.452Z,2.64
2018-03-16T04:04:33.968Z,2.54
2018-03-16T04:07:01.519Z,2.58
2018-03-16T04:09:29.053Z,2.48
2018-03-16T04:11:56.590Z,2.54
2018-03-16T04:14:24.219Z,2.49
2018-03-16T04:16:51.745Z,2.55
2018-03-16T04:19:19.308Z,2.58
2018-03-16T04:21:46.858Z,2.53
2018-03-16T04:24:14.388Z,2.47
2018-03-16T04:26:42.254Z,2.54
2018-03-16T04:29:09.797Z,2.50
2018-03-16T04:31:37.579Z,2.43
2018-03-16T04:34:05.110Z,2.42
2018-03-16T04:36:32.669Z,2.47
2018-03-16T04:39:00.188Z,2.47
2018-03-16T04:41:27.698Z,2.45
2018-03-16T04:43:55.244Z,2.50
2018-03-16T04:46:22.907Z,2.34
2018-03-16T04:48:50.436Z,2.29
2018-03-16T04:51:17.985Z,2.34
2018-03-16T04:53:45.518Z,2.30
2018-03-16T04:56:13.075Z,2.42
2018-03-16T04:58:40.599Z,2.46
2018-03-16T05:01:08.108Z,2.38
2018-03-16T05:03:35.599Z,2.35
2018-03-16T05:06:03.158Z,2.22
2018-03-16T05:08:30.674Z,2.27
2018-03-16T05:10:58.179Z,2.34
2018-03-16T05:13:25.725Z,2.25
2018-03-16T05:15:53.353Z,2.33
2018-03-16T05:18:21.123Z,2.35
2018-03-16T05:20:48.675Z,2.31
2018-03-16T05:23:16.190Z,2.32
2018-03-16T05:25:43.700Z,2.29
2018-03-16T05:28:11.234Z,2.24
2018-03-16T05:30:38.827Z,2.28
2018-03-16T05:33:06.393Z,2.30
2018-03-16T05:35:33.918Z,2.20
2018-03-16T05:38:01.424Z,2.29
2018-03-16T05:40:28.932Z,2.18
2018-03-16T05:42:56.484Z,2.22
2018-03-16T05:45:24.003Z,2.20
2018-03-16T05:47:52.068Z,2.23
2018-03-16T05:50:19.624Z,2.10
2018-03-16T05:52:47.192Z,2.04
2018-03-16T05:55:14.713Z,2.10
2018-03-16T05:57:42.276Z,2.02
2018-03-16T06:00:09.833Z,2.08
2018-03-16T06:02:37.598Z,2.08
2018-03-16T06:05:05.162Z,2.13
2018-03-16T06:07:32.691Z,2.15
2018-03-16T06:10:00.214Z,2.16
2018-03-16T06:12:27.782Z,2.07
2018-03-16T06:14:55.302Z,2.05
2018-03-16T06:17:22.896Z,2.09
2018-03-16T06:19:50.490Z,2.08
2018-03-16T06:22:18.039Z,2.07
2018-03-16T06:24:45.881Z,2.12
2018-03-16T06:27:13.551Z,2.09
2018-03-16T06:29:41.083Z,2.12
2018-03-16T06:32:08.932Z,2.11
2018-03-16T06:34:36.490Z,1.99
2018-03-16T06:37:04.008Z,2.02
2018-03-16T06:39:31.502Z,2.05
2018-03-16T06:41:59.038Z,2.09
2018-03-16T06:44:26.560Z,2.04
2018-03-16T06:46:54.387Z,2.01
2018-03-16T06:49:22.785Z,2.05
2018-03-16T06:51:51.637Z,2.06
2018-03-16T06:54:19.156Z,2.08
2018-03-16T06:56:46.790Z,2.15
2018-03-16T06:59:14.306Z,2.17
2018-03-16T07:01:41.832Z,2.13
2018-03-16T07:04:09.538Z,2.05
2018-03-16T07:06:37.061Z,1.96
2018-03-16T07:09:04.610Z,1.91
2018-03-16T07:11:32.498Z,1.94
2018-03-16T07:14:00.231Z,1.82
2018-03-16T07:16:27.779Z,1.91
2018-03-16T07:18:55.351Z,1.98
2018-03-16T07:21:22.889Z,1.92
2018-03-16T07:23:50.423Z,1.76
2018-03-16T07:26:18.075Z,1.70
2018-03-16T07:28:45.596Z,1.72
2018-03-16T07:31:13.125Z,1.89
2018-03-16T07:33:40.693Z,1.95
2018-03-16T07:36:08.661Z,1.86
2018-03-16T07:38:36.194Z,1.84
2018-03-16T07:41:04.948Z,1.94
2018-03-16T07:43:32.699Z,2.02
2018-03-16T07:46:00.239Z,2.06
2018-03-16T07:48:27.789Z,1.92
2018-03-16T07:50:55.388Z,1.86
2018-03-16T07:53:22.916Z,1.85
2018-03-16T07:55:50.536Z,1.89
2018-03-16T07:58:18.050Z,1.87
2018-03-16T08:00:45.589Z,1.93
2018-03-16T08:03:13.153Z,1.85
2018-03-16T08:05:40.681Z,1.78
2018-03-16T08:08:08.187Z,1.89
2018-03-16T08:10:36.013Z,1.80
2018-03-16T08:13:03.529Z,1.82
2018-03-16T08:15:31.338Z,1.89
2018-03-16T08:17:58.899Z,1.99
2018-03-16T08:20:26.417Z,2.08
2018-03-16T08:22:53.936Z,2.10
2018-03-16T08:25:21.463Z,2.16
2018-03-16T08:27:49.020Z,2.16
2018-03-16T08:30:16.525Z,2.02
2018-03-16T08:32:44.304Z,2.06
2018-03-16T08:35:11.862Z,2.07
2018-03-16T08:37:39.358Z,2.15
2018-03-16T08:40:06.890Z,2.21
2018-03-16T08:42:34.430Z,2.20
2018-03-16T08:45:01.944Z,2.12
2018-03-16T08:47:29.536Z,2.02
2018-03-16T08:49:57.100Z,2.05
2018-03-16T08:52:24.839Z,2.17
2018-03-16T08:54:52.381Z,2.11
2018-03-16T08:57:19.905Z,1.99
2018-03-16T08:59:47.554Z,1.92
2018-03-16T09:02:15.093Z,2.01
2018-03-16T09:04:42.616Z,1.96
2018-03-16T09:07:10.144Z,1.95
2018-03-16T09:09:37.672Z,2.05
2018-03-16T09:12:05.227Z,2.15
2018-03-16T09:14:32.806Z,1.97
2018-03-16T09:17:00.398Z,1.96
2018-03-16T09:19:27.912Z,1.96
2018-03-16T09:21:55.438Z,2.01
2018-03-16T09:24:22.979Z,2.09
2018-03-16T09:26:50.514Z,2.01
2018-03-16T09:29:18.173Z,2.00
2018-03-16T09:31:45.704Z,1.96
2018-03-16T09:34:13.234Z,2.12
2018-03-16T09:36:40.774Z,2.13
2018-03-16T09:39:08.998Z,2.09
2018-03-16T09:41:36.779Z,1.88
2018-03-16T09:44:04.361Z,1.95
2018-03-16T09:46:35.801Z,1.92
2018-03-16T09:49:06.594Z,1.93
2018-03-16T09:51:35.230Z,1.94
2018-03-16T09:54:04.020Z,2.05
2018-03-16T09:56:34.764Z,2.01
2018-03-16T09:59:06.238Z,1.81
2018-03-16T10:01:34.343Z,1.64
2018-03-16T10:04:01.911Z,1.77
2018-03-16T10:06:36.166Z,1.74
2018-03-16T10:09:05.839Z,1.72
2018-03-16T10:11:35.168Z,1.61
2018-03-16T10:14:07.060Z,1.66
2018-03-16T10:16:35.285Z,1.85
2018-03-16T10:19:05.810Z,1.65
2018-03-16T10:21:35.854Z,1.66
2018-03-16T10:24:03.608Z,1.82
2018-03-16T10:26:31.154Z,1.81
2018-03-16T10:29:00.433Z,1.79
2018-03-16T10:31:27.979Z,1.98
2018-03-16T10:33:55.846Z,1.97
2018-03-16T10:36:23.433Z,1.92
2018-03-16T10:38:51.854Z,1.75
2018-03-16T10:41:19.499Z,1.67
2018-03-16T10:43:47.081Z,1.62
2018-03-16T10:46:14.593Z,1.69
2018-03-16T10:48:42.770Z,1.61
2018-03-16T10:51:10.412Z,1.77
2018-03-16T10:53:37.917Z,1.84
2018-03-16T10:56:05.442Z,1.93
2018-03-16T10:58:33.003Z,2.00
2018-03-16T11:01:00.558Z,1.92
2018-03-16T11:03:33.857Z,2.08
2018-03-16T11:06:02.031Z,2.11
2018-03-16T11:08:30.415Z,2.03
2018-03-16T11:10:57.974Z,2.18
2018-03-16T11:13:25.502Z,2.20
2018-03-16T11:15:53.045Z,2.06
2018-03-16T11:18:20.613Z,1.79
2018-03-16T11:20:48.235Z,1.84
2018-03-16T11:23:15.766Z,1.87
2018-03-16T11:25:43.357Z,1.93
2018-03-16T11:28:10.915Z,1.76
2018-03-16T11:30:38.436Z,1.85
2018-03-16T11:33:05.979Z,1.94
2018-03-16T11:35:33.783Z,1.81
2018-03-16T11:38:01.531Z,1.67
2018-03-16T11:40:29.144Z,1.69
2018-03-16T11:42:56.706Z,1.45
2018-03-16T11:45:24.258Z,1.70
2018-03-16T11:47:52.065Z,1.67
2018-03-16T11:50:19.646Z,1.50
2018-03-16T11:52:47.487Z,1.50
2018-03-16T11:55:15.039Z,1.57
2018-03-16T11:57:42.571Z,1.51
2018-03-16T12:00:10.101Z,1.53
2018-03-16T12:02:38.265Z,1.46
2018-03-16T12:05:05.791Z,1.67
2018-03-16T12:07:33.654Z,1.71
2018-03-16T12:10:01.353Z,1.80
2018-03-16T12:12:28.882Z,1.86
2018-03-16T12:14:56.419Z,1.72
2018-03-16T12:17:24.013Z,1.63
2018-03-16T12:19:51.613Z,1.65
2018-03-16T12:22:19.145Z,1.79
2018-03-16T12:24:46.714Z,1.91
2018-03-16T12:27:14.337Z,2.01
2018-03-16T12:29:41.857Z,2.01
2018-03-16T12:32:09.387Z,1.85
2018-03-16T12:34:36.903Z,1.64
2018-03-16T12:37:04.447Z,1.58
2018-03-16T12:39:31.995Z,1.62
2018-03-16T12:41:59.519Z,1.62
2018-03-16T12:44:27.276Z,1.52
2018-03-16T12:46:54.816Z,1.58
2018-03-16T12:49:22.339Z,1.67
2018-03-16T12:51:50.272Z,1.54
2018-03-16T12:54:18.205Z,1.63
2018-03-16T12:56:45.719Z,1.40
2018-03-16T12:59:13.263Z,1.60
2018-03-16T13:01:40.922Z,1.50
2018-03-16T13:04:08.727Z,1.56
2018-03-16T13:06:36.654Z,1.61
2018-03-16T13:09:04.885Z,1.43
2018-03-16T13:11:32.474Z,1.48
2018-03-16T13:13:59.999Z,1.46
2018-03-16T13:16:27.551Z,1.53
2018-03-16T13:18:55.110Z,1.36
2018-03-16T13:21:22.752Z,1.41
2018-03-16T13:23:50.419Z,1.35
2018-03-16T13:26:18.001Z,1.38
2018-03-16T13:28:45.595Z,1.49
2018-03-16T13:31:13.520Z,1.46
2018-03-16T13:33:41.066Z,1.46
2018-03-16T13:36:08.643Z,1.31
2018-03-16T13:38:36.200Z,1.38
2018-03-16T13:41:03.745Z,1.22
2018-03-16T13:43:31.287Z,1.33
2018-03-16T13:45:58.866Z,1.21
2018-03-16T13:48:26.416Z,1.10
2018-03-16T13:50:53.969Z,1.18
2018-03-16T13:53:21.531Z,1.11
2018-03-16T13:55:49.061Z,1.07
2018-03-16T13:58:16.576Z,1.21
2018-03-16T14:00:44.157Z,1.22
2018-03-16T14:03:11.744Z,1.11
2018-03-16T14:05:39.256Z,1.05
2018-03-16T14:08:06.886Z,1.12
2018-03-16T14:10:34.868Z,1.19
2018-03-16T14:13:02.382Z,0.98
2018-03-16T14:15:29.944Z,0.91
2018-03-16T14:17:57.486Z,1.01
2018-03-16T14:20:25.061Z,1.06
2018-03-16T14:22:52.636Z,0.91
2018-03-16T14:25:20.210Z,0.80
2018-03-16T14:27:47.776Z,0.76
2018-03-16T14:30:15.357Z,0.91
2018-03-16T14:32:42.901Z,1.04
2018-03-16T14:35:10.489Z,1.06
2018-03-16T14:37:38.064Z,1.06
2018-03-16T14:40:05.604Z,1.08
2018-03-16T14:42:33.233Z,1.18
2018-03-16T14:45:00.814Z,1.12
2018-03-16T14:47:28.326Z,0.99
2018-03-16T14:49:55.886Z,1.06
2018-03-16T14:52:23.496Z,1.11
2018-03-16T14:54:50.989Z,1.03
2018-03-16T14:57:18.508Z,0.98
2018-03-16T14:59:46.043Z,0.99
2018-03-16T15:02:13.562Z,0.98
2018-03-16T15:04:41.137Z,0.99
2018-03-16T15:07:08.686Z,0.77
2018-03-16T15:09:36.254Z,0.85
2018-03-16T15:12:03.796Z,0.93
2018-03-16T15:14:31.331Z,0.87
2018-03-16T15:16:58.864Z,0.88
2018-03-16T15:19:26.443Z,0.88
2018-03-16T15:21:54.089Z,0.97
2018-03-16T15:24:21.607Z,0.94
2018-03-16T15:26:49.176Z,1.02
2018-03-16T15:29:17.297Z,1.14
2018-03-16T15:31:44.807Z,1.18
2018-03-16T15:34:12.429Z,1.09
2018-03-16T15:36:41.140Z,1.06
2018-03-16T15:39:08.993Z,1.00
2018-03-16T15:44:10.691Z,1.04
2018-03-16T15:46:38.542Z,0.97
2018-03-16T15:49:06.080Z,1.05
2018-03-16T15:51:33.671Z,1.12
2018-03-16T15:54:02.168Z,1.12
2018-03-16T15:56:29.687Z,1.20
2018-03-16T15:58:57.379Z,1.21
2018-03-16T16:01:24.940Z,1.06
2018-03-16T16:03:52.530Z,1.05
2018-03-16T16:06:20.137Z,1.14
2018-03-16T16:08:47.760Z,1.20
2018-03-16T16:11:15.267Z,1.24
2018-03-16T16:13:42.833Z,1.19
2018-03-16T16:16:10.672Z,1.21
2018-03-16T16:18:38.255Z,1.13
2018-03-16T16:21:05.863Z,1.07
2018-03-16T16:23:33.696Z,1.12
2018-03-16T16:26:01.222Z,1.04
2018-03-16T16:28:28.843Z,1.14
2018-03-16T16:30:56.383Z,1.11
2018-03-16T16:33:23.895Z,1.14
2018-03-16T16:35:51.423Z,1.19
2018-03-16T16:38:18.991Z,1.20
2018-03-16T16:40:46.560Z,1.14
2018-03-16T16:43:14.122Z,1.08
2018-03-16T16:45:41.672Z,0.99
2018-03-16T16:48:09.190Z,0.98
2018-03-16T16:50:36.733Z,1.03
2018-03-16T16:53:04.274Z,0.91
2018-03-16T16:55:31.901Z,0.95
2018-03-16T16:57:59.437Z,0.99
2018-03-16T17:00:26.965Z,1.04
2018-03-16T17:02:54.488Z,1.04
2018-03-16T17:05:22.038Z,0.96
2018-03-16T17:07:49.559Z,0.92
2018-03-16T17:10:17.082Z,0.96
2018-03-16T17:12:45.164Z,0.90
2018-03-16T17:15:12.681Z,0.92
2018-03-16T17:17:40.233Z,0.86
2018-03-16T17:20:07.896Z,0.84
2018-03-16T17:22:35.430Z,0.83
2018-03-16T17:25:03.000Z,0.73
2018-03-16T17:27:32.020Z,0.80
2018-03-16T17:29:59.555Z,0.76
2018-03-16T17:32:27.108Z,0.89
2018-03-16T17:34:54.663Z,0.87
2018-03-16T17:37:22.468Z,0.91
2018-03-16T17:39:50.000Z,0.88
2018-03-16T17:42:17.563Z,0.93
2018-03-16T17:44:45.103Z,0.96
2018-03-16T17:47:12.633Z,1.00
2018-03-16T17:49:40.476Z,0.88
2018-03-16T17:52:08.341Z,0.91
2018-03-16T17:54:36.113Z,0.90
2018-03-16T17:57:03.664Z,0.95
2018-03-16T17:59:31.203Z,0.79
2018-03-16T18:01:59.098Z,0.75
2018-03-16T18:04:26.700Z,0.78
2018-03-16T18:06:54.214Z,0.72
2018-03-16T18:09:21.738Z,0.55
2018-03-16T18:11:49.455Z,0.63
2018-03-16T18:14:17.269Z,0.58
2018-03-16T18:16:44.811Z,0.57
2018-03-16T18:19:12.403Z,0.50
2018-03-16T18:21:39.922Z,0.59
2018-03-16T18:24:07.441Z,0.62
2018-03-16T18:26:34.968Z,0.64
2018-03-16T18:29:02.763Z,0.50
2018-03-16T18:31:30.291Z,0.51
2018-03-16T18:33:57.867Z,0.49
2018-03-16T18:36:25.395Z,0.55
2018-03-16T18:38:52.937Z,0.58
2018-03-16T18:41:20.521Z,0.62
2018-03-16T18:43:48.058Z,0.50
2018-03-16T18:46:15.605Z,0.57
2018-03-16T18:48:43.152Z,0.59
2018-03-16T18:51:10.646Z,0.62
2018-03-16T18:53:38.198Z,0.62
2018-03-16T18:56:05.748Z,0.49
2018-03-16T18:58:33.260Z,0.53
2018-03-16T19:01:00.803Z,0.58
2018-03-16T19:03:28.358Z,0.42
2018-03-16T19:05:55.890Z,0.25
2018-03-16T19:08:23.424Z,0.19
2018-03-16T19:10:51.247Z,0.23
2018-03-16T19:13:18.878Z,0.30
2018-03-16T19:15:46.393Z,0.40
2018-03-16T19:18:13.958Z,0.42
2018-03-16T19:20:41.483Z,0.40
2018-03-16T19:23:08.992Z,0.38
2018-03-16T19:25:36.539Z,0.34
2018-03-16T19:28:04.106Z,0.16
2018-03-16T19:30:31.657Z,0.22
2018-03-16T19:32:59.261Z,0.23
2018-03-16T19:35:26.985Z,0.27
2018-03-16T19:37:54.566Z,0.21
2018-03-16T19:40:22.125Z,0.21
2018-03-16T19:42:49.639Z,0.31
2018-03-16T19:45:17.149Z,0.33
2018-03-16T19:47:44.809Z,0.32
2018-03-16T19:50:12.333Z,0.33
2018-03-16T19:52:39.838Z,0.34
2018-03-16T19:55:07.385Z,0.31
2018-03-16T19:57:35.164Z,0.33
2018-03-16T20:00:02.711Z,0.24
2018-03-16T20:02:30.342Z,0.30
2018-03-16T20:04:57.865Z,0.41
2018-03-16T20:07:25.391Z,0.34
2018-03-16T20:09:52.962Z,0.38
2018-03-16T20:12:20.486Z,0.32
2018-03-16T20:14:48.239Z,0.29
2018-03-16T20:17:15.856Z,0.23
2018-03-16T20:19:44.045Z,-0.01
2018-03-16T20:22:11.826Z,0.08
2018-03-16T20:24:39.357Z,0.06
2018-03-16T20:27:06.885Z,0.08
2018-03-16T20:29:34.412Z,0.15
2018-03-16T20:32:02.750Z,0.18
2018-03-16T20:34:30.273Z,0.17
2018-03-16T20:36:58.998Z,0.17
2018-03-16T20:39:26.645Z,0.17
2018-03-16T20:41:54.404Z,0.16
2018-03-16T20:44:22.820Z,0.23
2018-03-16T20:46:51.233Z,0.16
2018-03-16T20:49:19.059Z,0.12
2018-03-16T20:51:46.925Z,0.01
2018-03-16T20:54:14.527Z,0.00
2018-03-16T20:56:42.403Z,0.08
2018-03-16T20:59:10.152Z,0.09
2018-03-16T21:01:38.099Z,0.02
2018-03-16T21:04:05.636Z,-0.01
2018-03-16T21:06:33.162Z,-0.04
2018-03-16T21:09:00.726Z,0.01
2018-03-16T21:11:28.360Z,0.06
2018-03-16T21:13:56.054Z,-0.16
2018-03-16T21:16:23.656Z,-0.17
2018-03-16T21:18:51.195Z,-0.22
2018-03-16T21:21:18.980Z,-0.22
2018-03-16T21:23:46.571Z,-0.26
2018-03-16T21:26:14.211Z,-0.22
2018-03-16T21:28:41.716Z,-0.25
2018-03-16T21:31:09.294Z,-0.33
2018-03-16T21:33:36.812Z,-0.42
2018-03-16T21:36:04.657Z,-0.37
2018-03-16T21:38:32.343Z,-0.35
2018-03-16T21:40:59.873Z,-0.27
2018-03-16T21:43:27.675Z,-0.25
2018-03-16T21:45:55.328Z,-0.26
2018-03-16T21:48:22.964Z,-0.24
2018-03-16T21:50:50.485Z,-0.35
2018-03-16T21:53:18.061Z,-0.31
2018-03-16T21:55:45.635Z,-0.30
2018-03-16T21:58:13.168Z,-0.28
2018-03-16T22:00:40.707Z,-0.27
2018-03-16T22:03:08.220Z,-0.29
2018-03-16T22:05:35.738Z,-0.36
2018-03-16T22:08:03.323Z,-0.32
2018-03-16T22:10:30.915Z,-0.38
2018-03-16T22:12:58.476Z,-0.38
2018-03-16T22:15:26.024Z,-0.38
2018-03-16T22:17:53.594Z,-0.50
2018-03-16T22:20:21.119Z,-0.47
2018-03-16T22:22:48.677Z,-0.40
2018-03-16T22:25:16.493Z,-0.42
2018-03-16T22:27:44.021Z,-0.46
2018-03-16T22:30:11.590Z,-0.52
2018-03-16T22:32:39.117Z,-0.50
2018-03-16T22:35:06.622Z,-0.51
2018-03-16T22:37:34.174Z,-0.51
2018-03-16T22:40:01.710Z,-0.44
2018-03-16T22:42:29.229Z,-0.48
2018-03-16T22:44:56.772Z,-0.60
2018-03-16T22:47:24.312Z,-0.70
2018-03-16T22:49:51.836Z,-0.66
2018-03-16T22:52:19.379Z,-0.75
2018-03-16T22:54:46.940Z,-0.70
2018-03-16T22:57:14.514Z,-0.79
2018-03-16T22:59:42.079Z,-0.80
2018-03-16T23:02:09.605Z,-0.73
2018-03-16T23:04:37.368Z,-0.67
2018-03-16T23:07:04.934Z,-0.79
2018-03-16T23:09:32.476Z,-0.82
2018-03-16T23:11:59.999Z,-0.71
2018-03-16T23:14:27.558Z,-0.62
2018-03-16T23:16:55.087Z,-0.79
2018-03-16T23:19:22.617Z,-0.89
2018-03-16T23:21:50.198Z,-0.87
2018-03-16T23:24:17.733Z,-0.74
2018-03-16T23:26:45.330Z,-0.75
2018-03-16T23:29:12.905Z,-0.73
2018-03-16T23:31:40.415Z,-0.87
2018-03-16T23:34:07.927Z,-0.88
2018-03-16T23:36:35.519Z,-0.90
2018-03-16T23:39:03.078Z,-0.90
2018-03-16T23:41:30.700Z,-0.97
2018-03-16T23:43:58.265Z,-0.95
2018-03-16T23:46:25.766Z,-0.98
2018-03-16T23:48:53.278Z,-0.92
2018-03-16T23:51:20.839Z,-1.10
2018-03-16T23:53:48.351Z,-1.03
2018-03-16T23:56:15.857Z,-1.04
2018-03-16T23:58:43.393Z,-1.16
